sensor_id;sensor_type;location;lat;lon;timestamp;pressure;altitude;pressure_sealevel;temperature;humidity
74895;BME280;63447;49.446;8.666;2023-02-28T00:00:48;101399.59;;;0.66;54.47
74895;BME280;63447;49.446;8.666;2023-02-28T00:03:16;101381.84;;;0.47;54.91
74895;BME280;63447;49.446;8.666;2023-02-28T00:05:44;101401.03;;;0.57;55.30
74895;BME280;63447;49.446;8.666;2023-02-28T00:08:11;101385.88;;;0.44;55.38
74895;BME280;63447;49.446;8.666;2023-02-28T00:10:39;101403.88;;;0.62;55.72
74895;BME280;63447;49.446;8.666;2023-02-28T00:13:07;101400.38;;;0.50;55.08
74895;BME280;63447;49.446;8.666;2023-02-28T00:15:37;101393.88;;;0.51;54.99
74895;BME280;63447;49.446;8.666;2023-02-28T00:18:07;101398.16;;;0.35;55.95
74895;BME280;63447;49.446;8.666;2023-02-28T00:20:39;101385.69;;;0.11;56.91
74895;BME280;63447;49.446;8.666;2023-02-28T00:23:04;101396.31;;;-0.11;58.23
74895;BME280;63447;49.446;8.666;2023-02-28T00:25:29;101394.19;;;0.03;57.95
74895;BME280;63447;49.446;8.666;2023-02-28T00:27:58;101401.88;;;-0.06;58.11
74895;BME280;63447;49.446;8.666;2023-02-28T00:30:23;101379.22;;;-0.12;57.20
74895;BME280;63447;49.446;8.666;2023-02-28T00:32:51;101373.34;;;-0.32;58.67
74895;BME280;63447;49.446;8.666;2023-02-28T00:35:21;101378.75;;;-0.20;58.20
74895;BME280;63447;49.446;8.666;2023-02-28T00:37:50;101397.84;;;-0.15;57.67
74895;BME280;63447;49.446;8.666;2023-02-28T00:40:17;101393.47;;;-0.16;58.21
74895;BME280;63447;49.446;8.666;2023-02-28T00:42:43;101375.56;;;-0.17;58.30
74895;BME280;63447;49.446;8.666;2023-02-28T00:45:08;101382.75;;;-0.11;58.10
74895;BME280;63447;49.446;8.666;2023-02-28T00:47:38;101400.44;;;-0.09;58.13
74895;BME280;63447;49.446;8.666;2023-02-28T00:50:09;101387.84;;;-0.03;57.83
74895;BME280;63447;49.446;8.666;2023-02-28T00:52:37;101402.31;;;0.03;57.31
74895;BME280;63447;49.446;8.666;2023-02-28T00:55:07;101380.63;;;-0.09;58.11
74895;BME280;63447;49.446;8.666;2023-02-28T00:57:32;101392.19;;;-0.02;57.86
74895;BME280;63447;49.446;8.666;2023-02-28T01:00:00;101382.63;;;-0.16;58.22
74895;BME280;63447;49.446;8.666;2023-02-28T01:02:26;101402.31;;;0.03;58.00
74895;BME280;63447;49.446;8.666;2023-02-28T01:04:54;101400.31;;;0.10;57.70
74895;BME280;63447;49.446;8.666;2023-02-28T01:07:22;101403.63;;;0.00;57.53
74895;BME280;63447;49.446;8.666;2023-02-28T01:09:47;101393.97;;;-0.08;58.24
74895;BME280;63447;49.446;8.666;2023-02-28T01:12:15;101392.78;;;0.00;57.87
74895;BME280;63447;49.446;8.666;2023-02-28T01:14:44;101390.31;;;-0.02;57.67
74895;BME280;63447;49.446;8.666;2023-02-28T01:17:10;101392.06;;;0.05;58.24
74895;BME280;63447;49.446;8.666;2023-02-28T01:19:37;101372.97;;;-0.12;58.53
74895;BME280;63447;49.446;8.666;2023-02-28T01:22:05;101384.66;;;0.00;58.17
74895;BME280;63447;49.446;8.666;2023-02-28T01:24:32;101385.81;;;0.04;58.22
74895;BME280;63447;49.446;8.666;2023-02-28T01:26:58;101383.22;;;-0.03;58.49
74895;BME280;63447;49.446;8.666;2023-02-28T01:29:23;101384.16;;;0.03;57.81
74895;BME280;63447;49.446;8.666;2023-02-28T01:31:48;101379.69;;;-0.03;57.80
74895;BME280;63447;49.446;8.666;2023-02-28T01:34:14;101381.59;;;-0.04;57.83
74895;BME280;63447;49.446;8.666;2023-02-28T01:36:46;101398.06;;;0.07;58.38
74895;BME280;63447;49.446;8.666;2023-02-28T01:39:11;101377.56;;;-0.13;58.58
74895;BME280;63447;49.446;8.666;2023-02-28T01:41:38;101383.34;;;-0.21;58.92
74895;BME280;63447;49.446;8.666;2023-02-28T01:47:12;101372.84;;;-0.17;59.18
74895;BME280;63447;49.446;8.666;2023-02-28T01:49:39;101386.28;;;-0.11;58.74
74895;BME280;63447;49.446;8.666;2023-02-28T01:52:07;101372.13;;;-0.24;59.40
74895;BME280;63447;49.446;8.666;2023-02-28T01:54:49;101367.88;;;-0.20;58.91
74895;BME280;63447;49.446;8.666;2023-02-28T01:57:21;101372.97;;;-0.24;58.50
74895;BME280;63447;49.446;8.666;2023-02-28T01:59:50;101385.47;;;-0.23;59.92
74895;BME280;63447;49.446;8.666;2023-02-28T02:02:22;101375.56;;;-0.29;59.41
74895;BME280;63447;49.446;8.666;2023-02-28T02:04:54;101372.75;;;-0.34;59.88
74895;BME280;63447;49.446;8.666;2023-02-28T02:07:25;101379.78;;;-0.45;59.90
74895;BME280;63447;49.446;8.666;2023-02-28T02:10:02;101360.09;;;-0.52;60.63
74895;BME280;63447;49.446;8.666;2023-02-28T02:15:19;101368.03;;;-0.39;60.41
74895;BME280;63447;49.446;8.666;2023-02-28T02:17:56;101363.78;;;-0.35;60.21
74895;BME280;63447;49.446;8.666;2023-02-28T02:36:45;101350.34;;;-0.41;60.39
74895;BME280;63447;49.446;8.666;2023-02-28T02:42:01;101341.63;;;-0.31;60.48
74895;BME280;63447;49.446;8.666;2023-02-28T02:44:40;101352.09;;;-0.23;59.86
74895;BME280;63447;49.446;8.666;2023-02-28T02:47:15;101354.81;;;-0.12;58.93
74895;BME280;63447;49.446;8.666;2023-02-28T02:49:47;101362.34;;;-0.25;60.74
74895;BME280;63447;49.446;8.666;2023-02-28T02:52:21;101357.31;;;-0.33;60.58
74895;BME280;63447;49.446;8.666;2023-02-28T02:54:50;101359.75;;;-0.44;60.30
74895;BME280;63447;49.446;8.666;2023-02-28T02:57:35;101358.81;;;-0.38;60.94
74895;BME280;63447;49.446;8.666;2023-02-28T03:00:04;101366.59;;;-0.53;60.97
74895;BME280;63447;49.446;8.666;2023-02-28T03:02:35;101364.13;;;-0.54;61.53
74895;BME280;63447;49.446;8.666;2023-02-28T03:05:34;101346.06;;;-0.49;61.69
74895;BME280;63447;49.446;8.666;2023-02-28T03:08:03;101346.06;;;-0.49;60.91
74895;BME280;63447;49.446;8.666;2023-02-28T03:10:42;101349.75;;;-0.55;61.00
74895;BME280;63447;49.446;8.666;2023-02-28T03:16:00;101351.50;;;-0.60;61.79
74895;BME280;63447;49.446;8.666;2023-02-28T03:24:05;101344.78;;;-0.58;62.22
74895;BME280;63447;49.446;8.666;2023-02-28T03:26:34;101345.22;;;-0.73;62.31
74895;BME280;63447;49.446;8.666;2023-02-28T03:29:19;101347.97;;;-0.61;62.24
74895;BME280;63447;49.446;8.666;2023-02-28T03:32:00;101354.22;;;-0.60;62.08
74895;BME280;63447;49.446;8.666;2023-02-28T03:34:34;101345.25;;;-0.61;61.97
74895;BME280;63447;49.446;8.666;2023-02-28T03:37:11;101345.72;;;-0.64;61.75
74895;BME280;63447;49.446;8.666;2023-02-28T03:39:49;101357.03;;;-0.67;61.68
74895;BME280;63447;49.446;8.666;2023-02-28T03:42:20;101328.16;;;-0.85;61.66
74895;BME280;63447;49.446;8.666;2023-02-28T03:44:55;101348.44;;;-0.64;62.42
74895;BME280;63447;49.446;8.666;2023-02-28T03:49:49;101343.22;;;-0.77;62.96
74895;BME280;63447;49.446;8.666;2023-02-28T03:52:18;101324.94;;;-0.93;63.38
74895;BME280;63447;49.446;8.666;2023-02-28T03:54:48;101356.06;;;-0.73;62.08
74895;BME280;63447;49.446;8.666;2023-02-28T03:57:36;101348.41;;;-0.76;63.08
74895;BME280;63447;49.446;8.666;2023-02-28T04:02:35;101351.47;;;-0.72;62.39
74895;BME280;63447;49.446;8.666;2023-02-28T04:05:06;101357.13;;;-0.85;62.84
74895;BME280;63447;49.446;8.666;2023-02-28T04:07:33;101332.94;;;-0.98;63.76
74895;BME280;63447;49.446;8.666;2023-02-28T04:10:04;101350.19;;;-0.81;62.68
74895;BME280;63447;49.446;8.666;2023-02-28T04:12:30;101327.50;;;-0.98;62.94
74895;BME280;63447;49.446;8.666;2023-02-28T04:15:00;101351.25;;;-0.82;62.73
74895;BME280;63447;49.446;8.666;2023-02-28T04:17:25;101343.72;;;-0.80;63.19
74895;BME280;63447;49.446;8.666;2023-02-28T04:19:52;101312.78;;;-1.03;63.22
74895;BME280;63447;49.446;8.666;2023-02-28T04:22:19;101332.00;;;-0.92;63.48
74895;BME280;63447;49.446;8.666;2023-02-28T04:24:44;101338.16;;;-0.85;62.99
74895;BME280;63447;49.446;8.666;2023-02-28T04:27:10;101348.75;;;-0.84;63.21
74895;BME280;63447;49.446;8.666;2023-02-28T04:29:37;101334.34;;;-0.96;63.87
74895;BME280;63447;49.446;8.666;2023-02-28T04:32:05;101323.38;;;-1.01;63.54
74895;BME280;63447;49.446;8.666;2023-02-28T04:34:34;101347.22;;;-0.91;63.54
74895;BME280;63447;49.446;8.666;2023-02-28T04:37:00;101335.63;;;-0.98;62.88
74895;BME280;63447;49.446;8.666;2023-02-28T04:39:28;101331.88;;;-0.97;63.45
74895;BME280;63447;49.446;8.666;2023-02-28T04:41:53;101334.81;;;-0.99;62.78
74895;BME280;63447;49.446;8.666;2023-02-28T04:44:22;101335.41;;;-0.97;62.71
74895;BME280;63447;49.446;8.666;2023-02-28T04:46:48;101334.34;;;-0.96;64.64
74895;BME280;63447;49.446;8.666;2023-02-28T04:49:14;101342.97;;;-0.87;63.52
74895;BME280;63447;49.446;8.666;2023-02-28T04:51:40;101341.19;;;-0.93;63.28
74895;BME280;63447;49.446;8.666;2023-02-28T04:54:08;101342.47;;;-0.96;63.55
74895;BME280;63447;49.446;8.666;2023-02-28T04:56:34;101336.47;;;-0.98;63.59
74895;BME280;63447;49.446;8.666;2023-02-28T04:59:02;101344.50;;;-0.91;63.08
74895;BME280;63447;49.446;8.666;2023-02-28T05:01:33;101338.75;;;-0.83;63.85
74895;BME280;63447;49.446;8.666;2023-02-28T05:04:03;101351.16;;;-0.64;63.14
74895;BME280;63447;49.446;8.666;2023-02-28T05:06:31;101354.31;;;-0.79;62.69
74895;BME280;63447;49.446;8.666;2023-02-28T05:08:58;101343.34;;;-0.84;62.86
74895;BME280;63447;49.446;8.666;2023-02-28T05:11:27;101353.97;;;-0.59;62.64
74895;BME280;63447;49.446;8.666;2023-02-28T05:13:54;101346.66;;;-0.82;62.28
74895;BME280;63447;49.446;8.666;2023-02-28T05:16:19;101357.94;;;-0.73;62.47
74895;BME280;63447;49.446;8.666;2023-02-28T05:18:45;101344.41;;;-0.85;62.51
74895;BME280;63447;49.446;8.666;2023-02-28T05:21:52;101284.72;;;-1.31;62.69
74895;BME280;63447;49.446;8.666;2023-02-28T05:24:20;101367.75;;;-0.72;62.57
74895;BME280;63447;49.446;8.666;2023-02-28T05:26:50;101362.69;;;-0.80;62.67
74895;BME280;63447;49.446;8.666;2023-02-28T05:29:16;101345.19;;;-0.96;62.28
74895;BME280;63447;49.446;8.666;2023-02-28T05:31:46;101369.38;;;-0.83;62.30
74895;BME280;63447;49.446;8.666;2023-02-28T05:34:12;101354.19;;;-0.72;61.86
74895;BME280;63447;49.446;8.666;2023-02-28T05:36:38;101373.38;;;-0.74;62.34
74895;BME280;63447;49.446;8.666;2023-02-28T05:39:05;101364.94;;;-0.65;62.56
74895;BME280;63447;49.446;8.666;2023-02-28T05:41:38;101358.66;;;-0.78;61.82
74895;BME280;63447;49.446;8.666;2023-02-28T05:44:06;101369.97;;;-0.69;62.20
74895;BME280;63447;49.446;8.666;2023-02-28T05:46:31;101368.19;;;-0.75;61.81
74895;BME280;63447;49.446;8.666;2023-02-28T05:48:58;101368.44;;;-0.77;62.43
74895;BME280;63447;49.446;8.666;2023-02-28T05:51:25;101344.03;;;-0.88;62.06
74895;BME280;63447;49.446;8.666;2023-02-28T05:53:50;101355.94;;;-0.89;62.37
74895;BME280;63447;49.446;8.666;2023-02-28T05:56:16;101344.97;;;-0.94;61.81
74895;BME280;63447;49.446;8.666;2023-02-28T05:58:41;101368.09;;;-0.80;62.28
74895;BME280;63447;49.446;8.666;2023-02-28T06:01:40;101332.00;;;-1.04;62.42
74895;BME280;63447;49.446;8.666;2023-02-28T06:04:14;101354.66;;;-0.87;62.34
74895;BME280;63447;49.446;8.666;2023-02-28T06:06:44;101358.66;;;-0.78;62.86
74895;BME280;63447;49.446;8.666;2023-02-28T06:09:10;101344.88;;;-0.88;62.30
74895;BME280;63447;49.446;8.666;2023-02-28T06:11:36;101359.84;;;-0.85;62.37
74895;BME280;63447;49.446;8.666;2023-02-28T06:14:01;101386.16;;;-0.62;65.64
74895;BME280;63447;49.446;8.666;2023-02-28T06:16:28;101375.91;;;-0.60;64.08
74895;BME280;63447;49.446;8.666;2023-02-28T06:18:57;101378.50;;;-0.42;63.70
74895;BME280;63447;49.446;8.666;2023-02-28T06:21:23;101383.44;;;-0.51;63.28
74895;BME280;63447;49.446;8.666;2023-02-28T06:23:51;101384.16;;;-0.44;61.69
74895;BME280;63447;49.446;8.666;2023-02-28T06:26:17;101371.63;;;-0.68;61.24
74895;BME280;63447;49.446;8.666;2023-02-28T06:28:42;101352.16;;;-0.88;61.80
74895;BME280;63447;49.446;8.666;2023-02-28T06:31:13;101391.19;;;-0.66;62.08
74895;BME280;63447;49.446;8.666;2023-02-28T06:33:42;101387.06;;;-0.69;62.50
74895;BME280;63447;49.446;8.666;2023-02-28T06:36:11;101389.09;;;-0.64;62.46
74895;BME280;63447;49.446;8.666;2023-02-28T06:38:37;101385.78;;;-0.66;61.98
74895;BME280;63447;49.446;8.666;2023-02-28T06:41:08;101376.50;;;-0.58;62.42
74895;BME280;63447;49.446;8.666;2023-02-28T06:43:38;101404.41;;;-0.46;61.09
74895;BME280;63447;49.446;8.666;2023-02-28T06:46:08;101402.53;;;-0.57;60.99
74895;BME280;63447;49.446;8.666;2023-02-28T06:48:35;101382.25;;;-0.78;61.94
74895;BME280;63447;49.446;8.666;2023-02-28T06:51:05;101399.69;;;-0.51;61.59
74895;BME280;63447;49.446;8.666;2023-02-28T06:53:32;101389.81;;;-0.57;61.75
74895;BME280;63447;49.446;8.666;2023-02-28T06:55:57;101386.97;;;-0.62;61.35
74895;BME280;63447;49.446;8.666;2023-02-28T06:58:23;101405.03;;;-0.44;62.37
74895;BME280;63447;49.446;8.666;2023-02-28T07:00:51;101412.69;;;-0.53;61.31
74895;BME280;63447;49.446;8.666;2023-02-28T07:03:19;101412.69;;;-0.41;60.63
74895;BME280;63447;49.446;8.666;2023-02-28T07:05:47;101399.38;;;-0.31;60.99
74895;BME280;63447;49.446;8.666;2023-02-28T07:08:12;101390.53;;;-0.38;60.66
74895;BME280;63447;49.446;8.666;2023-02-28T07:10:38;101379.75;;;-0.68;61.15
74895;BME280;63447;49.446;8.666;2023-02-28T07:13:04;101409.28;;;-0.25;61.77
74895;BME280;63447;49.446;8.666;2023-02-28T07:15:30;101400.06;;;-0.24;60.59
74895;BME280;63447;49.446;8.666;2023-02-28T07:17:57;101403.03;;;-0.25;59.60
74895;BME280;63447;49.446;8.666;2023-02-28T07:20:23;101404.78;;;0.04;59.39
74895;BME280;63447;49.446;8.666;2023-02-28T07:22:50;101413.72;;;0.28;64.71
74895;BME280;63447;49.446;8.666;2023-02-28T07:25:26;101423.53;;;1.54;66.09
74895;BME280;63447;49.446;8.666;2023-02-28T07:27:55;101416.28;;;1.77;64.35
74895;BME280;63447;49.446;8.666;2023-02-28T07:30:29;101423.19;;;2.01;60.50
74895;BME280;63447;49.446;8.666;2023-02-28T07:32:57;101431.47;;;2.28;59.95
74895;BME280;63447;49.446;8.666;2023-02-28T07:35:27;101421.09;;;2.47;56.82
74895;BME280;63447;49.446;8.666;2023-02-28T07:37:57;101420.19;;;2.19;56.49
74895;BME280;63447;49.446;8.666;2023-02-28T07:40:26;101421.25;;;2.18;55.89
74895;BME280;63447;49.446;8.666;2023-02-28T07:42:54;101421.31;;;2.23;55.44
74895;BME280;63447;49.446;8.666;2023-02-28T07:45:21;101397.91;;;2.44;58.33
74895;BME280;63447;49.446;8.666;2023-02-28T07:47:49;101425.66;;;1.69;54.72
74895;BME280;63447;49.446;8.666;2023-02-28T07:50:18;101431.25;;;1.29;56.47
74895;BME280;63447;49.446;8.666;2023-02-28T07:52:43;101436.00;;;1.22;56.35
74895;BME280;63447;49.446;8.666;2023-02-28T07:55:11;101432.84;;;1.13;56.93
74895;BME280;63447;49.446;8.666;2023-02-28T07:57:36;101442.38;;;0.99;56.39
74895;BME280;63447;49.446;8.666;2023-02-28T08:00:06;101449.25;;;1.18;56.30
74895;BME280;63447;49.446;8.666;2023-02-28T08:02:32;101435.69;;;1.35;55.77
74895;BME280;63447;49.446;8.666;2023-02-28T08:04:59;101442.28;;;1.39;54.65
74895;BME280;63447;49.446;8.666;2023-02-28T08:07:27;101454.84;;;1.90;54.30
74895;BME280;63447;49.446;8.666;2023-02-28T08:09:53;101432.66;;;1.98;53.46
74895;BME280;63447;49.446;8.666;2023-02-28T08:12:19;101446.94;;;1.89;53.77
74895;BME280;63447;49.446;8.666;2023-02-28T08:14:47;101431.94;;;1.69;54.46
74895;BME280;63447;49.446;8.666;2023-02-28T08:17:14;101416.09;;;1.66;53.70
74895;BME280;63447;49.446;8.666;2023-02-28T08:19:42;101431.69;;;2.04;53.02
74895;BME280;63447;49.446;8.666;2023-02-28T08:22:12;101440.97;;;2.09;52.99
74895;BME280;63447;49.446;8.666;2023-02-28T08:24:43;101430.94;;;1.92;53.46
74895;BME280;63447;49.446;8.666;2023-02-28T08:27:09;101442.25;;;2.39;52.81
74895;BME280;63447;49.446;8.666;2023-02-28T08:29:37;101435.38;;;2.37;53.06
74895;BME280;63447;49.446;8.666;2023-02-28T08:32:08;101436.88;;;2.66;52.58
74895;BME280;63447;49.446;8.666;2023-02-28T08:34:34;101410.13;;;2.85;50.54
74895;BME280;63447;49.446;8.666;2023-02-28T08:36:59;101409.31;;;2.63;51.09
74895;BME280;63447;49.446;8.666;2023-02-28T08:39:24;101432.88;;;2.96;49.41
74895;BME280;63447;49.446;8.666;2023-02-28T08:41:52;101438.22;;;3.13;50.07
74895;BME280;63447;49.446;8.666;2023-02-28T08:44:17;101417.22;;;2.86;51.04
74895;BME280;63447;49.446;8.666;2023-02-28T08:46:43;101436.19;;;2.76;50.18
74895;BME280;63447;49.446;8.666;2023-02-28T08:49:10;101435.88;;;2.72;50.14
74895;BME280;63447;49.446;8.666;2023-02-28T08:51:35;101406.47;;;2.75;50.15
74895;BME280;63447;49.446;8.666;2023-02-28T08:54:03;101440.19;;;3.44;48.39
74895;BME280;63447;49.446;8.666;2023-02-28T08:56:31;101425.56;;;3.55;48.24
74895;BME280;63447;49.446;8.666;2023-02-28T08:58:58;101436.38;;;3.45;47.89
74895;BME280;63447;49.446;8.666;2023-02-28T09:01:26;101431.69;;;4.04;47.48
74895;BME280;63447;49.446;8.666;2023-02-28T09:03:55;101439.13;;;4.14;46.52
74895;BME280;63447;49.446;8.666;2023-02-28T09:06:25;101438.75;;;3.63;46.54
74895;BME280;63447;49.446;8.666;2023-02-28T09:08:55;101415.09;;;4.16;46.36
74895;BME280;63447;49.446;8.666;2023-02-28T09:11:25;101437.38;;;4.40;45.62
74895;BME280;63447;49.446;8.666;2023-02-28T09:13:51;101445.91;;;4.54;44.64
74895;BME280;63447;49.446;8.666;2023-02-28T09:16:17;101442.72;;;4.25;45.38
74895;BME280;63447;49.446;8.666;2023-02-28T09:18:45;101428.81;;;4.26;44.92
74895;BME280;63447;49.446;8.666;2023-02-28T09:21:14;101427.31;;;4.03;44.85
74895;BME280;63447;49.446;8.666;2023-02-28T09:23:46;101425.13;;;4.53;44.42
74895;BME280;63447;49.446;8.666;2023-02-28T09:26:19;101444.78;;;4.50;43.84
74895;BME280;63447;49.446;8.666;2023-02-28T09:28:48;101436.66;;;4.60;44.56
74895;BME280;63447;49.446;8.666;2023-02-28T09:31:22;101421.66;;;4.67;43.11
74895;BME280;63447;49.446;8.666;2023-02-28T09:33:54;101435.78;;;5.17;42.64
74895;BME280;63447;49.446;8.666;2023-02-28T09:36:23;101439.63;;;5.31;43.10
74895;BME280;63447;49.446;8.666;2023-02-28T09:38:51;101417.69;;;5.05;43.35
74895;BME280;63447;49.446;8.666;2023-02-28T09:41:35;101418.03;;;5.55;41.83
74895;BME280;63447;49.446;8.666;2023-02-28T09:44:05;101412.28;;;5.82;41.49
74895;BME280;63447;49.446;8.666;2023-02-28T09:46:40;101424.84;;;5.37;42.18
74895;BME280;63447;49.446;8.666;2023-02-28T09:49:13;101419.81;;;4.83;43.06
74895;BME280;63447;49.446;8.666;2023-02-28T09:52:04;101433.63;;;5.79;41.25
74895;BME280;63447;49.446;8.666;2023-02-28T09:54:34;101414.19;;;6.11;39.82
74895;BME280;63447;49.446;8.666;2023-02-28T10:02:21;101435.59;;;5.89;39.99
74895;BME280;63447;49.446;8.666;2023-02-28T10:05:08;101415.22;;;6.41;38.64
74895;BME280;63447;49.446;8.666;2023-02-28T10:12:56;101430.66;;;7.40;37.19
74895;BME280;63447;49.446;8.666;2023-02-28T10:15:25;101423.56;;;6.85;39.10
74895;BME280;63447;49.446;8.666;2023-02-28T10:18:05;101418.09;;;7.68;36.80
74895;BME280;63447;49.446;8.666;2023-02-28T10:20:39;101413.84;;;8.10;36.28
74895;BME280;63447;49.446;8.666;2023-02-28T10:23:25;101429.06;;;8.02;35.60
74895;BME280;63447;49.446;8.666;2023-02-28T10:26:00;101430.66;;;7.40;37.15
74895;BME280;63447;49.446;8.666;2023-02-28T10:28:32;101414.53;;;7.29;36.30
74895;BME280;63447;49.446;8.666;2023-02-28T10:30:58;101424.44;;;8.27;34.22
74895;BME280;63447;49.446;8.666;2023-02-28T10:33:25;101429.13;;;8.26;34.81
74895;BME280;63447;49.446;8.666;2023-02-28T10:35:51;101418.75;;;8.18;35.68
74895;BME280;63447;49.446;8.666;2023-02-28T10:38:26;101428.84;;;9.18;33.75
74895;BME280;63447;49.446;8.666;2023-02-28T10:41:07;101427.13;;;9.03;33.61
74895;BME280;63447;49.446;8.666;2023-02-28T10:43:33;101430.31;;;8.68;33.68
74895;BME280;63447;49.446;8.666;2023-02-28T10:48:37;101421.41;;;10.21;31.94
74895;BME280;63447;49.446;8.666;2023-02-28T10:51:11;101417.06;;;7.93;33.92
74895;BME280;63447;49.446;8.666;2023-02-28T10:58:59;101423.97;;;7.86;35.49
74895;BME280;63447;49.446;8.666;2023-02-28T11:01:40;101423.63;;;8.98;32.90
74895;BME280;63447;49.446;8.666;2023-02-28T11:07:20;101429.94;;;7.98;34.70
74895;BME280;63447;49.446;8.666;2023-02-28T11:09:54;101400.66;;;8.41;33.10
74895;BME280;63447;49.446;8.666;2023-02-28T11:14:49;101420.09;;;8.92;33.44
74895;BME280;63447;49.446;8.666;2023-02-28T11:17:26;101411.19;;;9.19;31.25
74895;BME280;63447;49.446;8.666;2023-02-28T11:20:06;101412.06;;;6.78;36.02
74895;BME280;63447;49.446;8.666;2023-02-28T11:22:36;101412.69;;;7.14;36.03
74895;BME280;63447;49.446;8.666;2023-02-28T11:25:25;101415.47;;;8.16;34.71
74895;BME280;63447;49.446;8.666;2023-02-28T11:27:56;101421.09;;;9.01;34.14
74895;BME280;63447;49.446;8.666;2023-02-28T11:30:36;101403.56;;;10.00;30.37
74895;BME280;63447;49.446;8.666;2023-02-28T11:36:20;101406.56;;;8.96;32.25
74895;BME280;63447;49.446;8.666;2023-02-28T11:38:47;101402.53;;;10.69;29.14
74895;BME280;63447;49.446;8.666;2023-02-28T11:46:51;101394.56;;;8.87;32.84
74895;BME280;63447;49.446;8.666;2023-02-28T12:06:15;101391.97;;;11.35;28.21
74895;BME280;63447;49.446;8.666;2023-02-28T12:08:55;101393.16;;;8.89;32.13
74895;BME280;63447;49.446;8.666;2023-02-28T12:17:29;101394.41;;;6.99;36.02
74895;BME280;63447;49.446;8.666;2023-02-28T12:23:28;101383.72;;;10.71;31.34
74895;BME280;63447;49.446;8.666;2023-02-28T12:25:58;101395.69;;;9.93;31.00
74895;BME280;63447;49.446;8.666;2023-02-28T12:28:34;101391.94;;;9.70;31.61
74895;BME280;63447;49.446;8.666;2023-02-28T12:31:17;101393.25;;;11.96;29.82
74895;BME280;63447;49.446;8.666;2023-02-28T12:33:45;101386.78;;;11.55;28.00
74895;BME280;63447;49.446;8.666;2023-02-28T12:36:17;101380.25;;;11.51;29.15
74895;BME280;63447;49.446;8.666;2023-02-28T12:38:58;101380.09;;;14.10;25.19
74895;BME280;63447;49.446;8.666;2023-02-28T12:44:06;101376.69;;;12.35;27.81
74895;BME280;63447;49.446;8.666;2023-02-28T12:46:37;101363.16;;;13.85;25.54
74895;BME280;63447;49.446;8.666;2023-02-28T12:49:09;101355.75;;;12.43;26.83
74895;BME280;63447;49.446;8.666;2023-02-28T12:51:36;101379.19;;;13.54;26.00
74895;BME280;63447;49.446;8.666;2023-02-28T12:54:23;101355.22;;;14.22;24.87
74895;BME280;63447;49.446;8.666;2023-02-28T13:02:19;101360.84;;;15.97;22.48
74895;BME280;63447;49.446;8.666;2023-02-28T13:05:07;101354.03;;;17.44;20.54
74895;BME280;63447;49.446;8.666;2023-02-28T13:10:41;101355.13;;;17.27;21.01
74895;BME280;63447;49.446;8.666;2023-02-28T13:13:14;101354.69;;;19.26;19.10
74895;BME280;63447;49.446;8.666;2023-02-28T13:15:40;101354.84;;;19.33;17.36
74895;BME280;63447;49.446;8.666;2023-02-28T13:20:56;101347.28;;;15.42;21.11
74895;BME280;63447;49.446;8.666;2023-02-28T13:23:38;101343.75;;;17.88;19.25
74895;BME280;63447;49.446;8.666;2023-02-28T13:26:06;101359.25;;;18.49;19.65
74895;BME280;63447;49.446;8.666;2023-02-28T13:31:16;101354.66;;;16.37;22.36
74895;BME280;63447;49.446;8.666;2023-02-28T13:46:36;101321.34;;;11.42;28.21
74895;BME280;63447;49.446;8.666;2023-02-28T13:52:18;101353.53;;;14.38;23.83
74895;BME280;63447;49.446;8.666;2023-02-28T14:03:14;101354.16;;;14.52;23.79
74895;BME280;63447;49.446;8.666;2023-02-28T14:05:46;101352.94;;;14.24;23.82
74895;BME280;63447;49.446;8.666;2023-02-28T14:08:33;101358.72;;;12.64;26.97
74895;BME280;63447;49.446;8.666;2023-02-28T14:11:08;101364.63;;;14.38;24.53
74895;BME280;63447;49.446;8.666;2023-02-28T14:13:46;101358.97;;;13.53;25.18
74895;BME280;63447;49.446;8.666;2023-02-28T14:16:25;101355.66;;;13.95;24.76
74895;BME280;63447;49.446;8.666;2023-02-28T14:21:43;101368.31;;;13.49;25.73
74895;BME280;63447;49.446;8.666;2023-02-28T14:35:02;101371.16;;;12.35;26.23
74895;BME280;63447;49.446;8.666;2023-02-28T14:37:33;101368.22;;;13.83;25.21
74895;BME280;63447;49.446;8.666;2023-02-28T14:40:03;101361.22;;;13.86;25.62
74895;BME280;63447;49.446;8.666;2023-02-28T14:42:36;101365.47;;;13.83;25.67
74895;BME280;63447;49.446;8.666;2023-02-28T14:45:20;101362.13;;;12.61;25.98
74895;BME280;63447;49.446;8.666;2023-02-28T14:47:46;101373.03;;;14.21;25.03
74895;BME280;63447;49.446;8.666;2023-02-28T14:50:32;101372.56;;;14.10;25.41
74895;BME280;63447;49.446;8.666;2023-02-28T14:53:01;101364.22;;;14.57;23.83
74895;BME280;63447;49.446;8.666;2023-02-28T14:55:35;101373.78;;;11.34;27.75
74895;BME280;63447;49.446;8.666;2023-02-28T14:58:03;101380.81;;;11.40;28.69
74895;BME280;63447;49.446;8.666;2023-02-28T15:00:34;101379.13;;;12.85;26.33
74895;BME280;63447;49.446;8.666;2023-02-28T15:03:19;101376.22;;;14.02;24.73
74895;BME280;63447;49.446;8.666;2023-02-28T15:06:15;101369.34;;;15.05;23.61
74895;BME280;63447;49.446;8.666;2023-02-28T15:08:43;101360.38;;;15.95;21.87
74895;BME280;63447;49.446;8.666;2023-02-28T15:11:15;101378.44;;;14.09;25.72
74895;BME280;63447;49.446;8.666;2023-02-28T15:13:43;101359.22;;;15.84;22.09
74895;BME280;63447;49.446;8.666;2023-02-28T15:16:13;101362.50;;;15.03;22.89
74895;BME280;63447;49.446;8.666;2023-02-28T15:18:46;101374.03;;;14.08;23.90
74895;BME280;63447;49.446;8.666;2023-02-28T15:21:17;101366.69;;;11.05;28.47
74895;BME280;63447;49.446;8.666;2023-02-28T15:23:46;101360.25;;;10.33;31.23
74895;BME280;63447;49.446;8.666;2023-02-28T15:26:18;101378.72;;;13.26;25.75
74895;BME280;63447;49.446;8.666;2023-02-28T15:28:44;101372.25;;;14.03;25.99
74895;BME280;63447;49.446;8.666;2023-02-28T15:31:23;101368.59;;;13.65;25.92
74895;BME280;63447;49.446;8.666;2023-02-28T15:33:58;101375.94;;;13.26;26.27
74895;BME280;63447;49.446;8.666;2023-02-28T15:36:29;101369.53;;;15.63;22.91
74895;BME280;63447;49.446;8.666;2023-02-28T15:38:57;101384.81;;;14.09;24.01
74895;BME280;63447;49.446;8.666;2023-02-28T15:41:26;101379.97;;;13.98;24.47